sensor_id;sensor_type;location;lat;lon;timestamp;pressure;altitude;pressure_sealevel;temperature
20736;BMP180;10528;52.124;5.196;2023-03-23T00:01:15;100035.00;;;17.60
20736;BMP180;10528;52.124;5.196;2023-03-23T00:03:47;100039.00;;;17.60
20736;BMP180;10528;52.124;5.196;2023-03-23T00:06:13;100039.00;;;17.60
20736;BMP180;10528;52.124;5.196;2023-03-23T00:08:46;100042.00;;;17.60
20736;BMP180;10528;52.124;5.196;2023-03-23T00:11:21;100045.00;;;17.60
20736;BMP180;10528;52.124;5.196;2023-03-23T00:13:50;100041.00;;;17.60
20736;BMP180;10528;52.124;5.196;2023-03-23T00:16:21;100037.00;;;17.60
20736;BMP180;10528;52.124;5.196;2023-03-23T00:18:59;100030.00;;;17.60
20736;BMP180;10528;52.124;5.196;2023-03-23T00:21:32;100022.00;;;17.60
20736;BMP180;10528;52.124;5.196;2023-03-23T00:24:17;100030.00;;;17.60
20736;BMP180;10528;52.124;5.196;2023-03-23T00:26:47;100017.00;;;17.70
20736;BMP180;10528;52.124;5.196;2023-03-23T00:29:20;100022.00;;;17.70
20736;BMP180;10528;52.124;5.196;2023-03-23T00:31:50;100016.00;;;17.70
20736;BMP180;10528;52.124;5.196;2023-03-23T00:34:23;100018.00;;;17.70
20736;BMP180;10528;52.124;5.196;2023-03-23T00:36:54;100016.00;;;17.70
20736;BMP180;10528;52.124;5.196;2023-03-23T00:39:23;100003.00;;;17.70
20736;BMP180;10528;52.124;5.196;2023-03-23T00:41:51;100001.00;;;17.70
20736;BMP180;10528;52.124;5.196;2023-03-23T00:44:17;100001.00;;;17.70
20736;BMP180;10528;52.124;5.196;2023-03-23T00:46:44;100000.00;;;17.70
20736;BMP180;10528;52.124;5.196;2023-03-23T00:49:13;99997.00;;;17.70
20736;BMP180;10528;52.124;5.196;2023-03-23T00:51:41;99984.00;;;17.70
20736;BMP180;10528;52.124;5.196;2023-03-23T00:54:07;99996.00;;;17.80
20736;BMP180;10528;52.124;5.196;2023-03-23T00:56:34;99991.00;;;17.70
20736;BMP180;10528;52.124;5.196;2023-03-23T00:59:01;99991.00;;;17.80
20736;BMP180;10528;52.124;5.196;2023-03-23T01:01:28;99988.00;;;17.80
20736;BMP180;10528;52.124;5.196;2023-03-23T01:03:54;99982.00;;;17.80
20736;BMP180;10528;52.124;5.196;2023-03-23T01:06:27;99970.00;;;17.80
20736;BMP180;10528;52.124;5.196;2023-03-23T01:08:54;99982.00;;;17.80
20736;BMP180;10528;52.124;5.196;2023-03-23T01:11:24;99975.00;;;17.80
20736;BMP180;10528;52.124;5.196;2023-03-23T01:13:51;99977.00;;;17.80
20736;BMP180;10528;52.124;5.196;2023-03-23T01:16:20;99991.00;;;17.80
20736;BMP180;10528;52.124;5.196;2023-03-23T01:18:46;99997.00;;;17.80
20736;BMP180;10528;52.124;5.196;2023-03-23T01:21:15;99991.00;;;17.80
20736;BMP180;10528;52.124;5.196;2023-03-23T01:23:41;99968.00;;;17.80
20736;BMP180;10528;52.124;5.196;2023-03-23T01:26:20;99968.00;;;17.80
20736;BMP180;10528;52.124;5.196;2023-03-23T01:28:46;99951.00;;;17.90
20736;BMP180;10528;52.124;5.196;2023-03-23T01:31:18;99950.00;;;17.90
20736;BMP180;10528;52.124;5.196;2023-03-23T01:33:44;99956.00;;;17.90
20736;BMP180;10528;52.124;5.196;2023-03-23T01:36:15;99953.00;;;17.90
20736;BMP180;10528;52.124;5.196;2023-03-23T01:38:44;99956.00;;;17.90
20736;BMP180;10528;52.124;5.196;2023-03-23T01:41:11;99950.00;;;17.90
20736;BMP180;10528;52.124;5.196;2023-03-23T01:46:26;99961.00;;;17.90
20736;BMP180;10528;52.124;5.196;2023-03-23T01:48:53;99955.00;;;17.90
20736;BMP180;10528;52.124;5.196;2023-03-23T01:51:21;99944.00;;;17.80
20736;BMP180;10528;52.124;5.196;2023-03-23T01:53:58;99955.00;;;17.80
20736;BMP180;10528;52.124;5.196;2023-03-23T01:56:32;99950.00;;;17.80
20736;BMP180;10528;52.124;5.196;2023-03-23T01:59:00;99948.00;;;17.80
20736;BMP180;10528;52.124;5.196;2023-03-23T02:01:27;99931.00;;;17.80
20736;BMP180;10528;52.124;5.196;2023-03-23T02:03:56;99945.00;;;17.80
20736;BMP180;10528;52.124;5.196;2023-03-23T02:06:23;99946.00;;;17.80
20736;BMP180;10528;52.124;5.196;2023-03-23T02:09:07;99927.00;;;17.80
20736;BMP180;10528;52.124;5.196;2023-03-23T02:11:34;99929.00;;;17.80
20736;BMP180;10528;52.124;5.196;2023-03-23T02:14:01;99931.00;;;17.80
20736;BMP180;10528;52.124;5.196;2023-03-23T02:16:38;99945.00;;;17.80
20736;BMP180;10528;52.124;5.196;2023-03-23T02:26:34;99941.00;;;17.80
20736;BMP180;10528;52.124;5.196;2023-03-23T02:34:59;99938.00;;;17.80
20736;BMP180;10528;52.124;5.196;2023-03-23T02:37:49;99937.00;;;17.80
20736;BMP180;10528;52.124;5.196;2023-03-23T02:40:28;99930.00;;;17.70
20736;BMP180;10528;52.124;5.196;2023-03-23T02:42:58;99926.00;;;17.80
20736;BMP180;10528;52.124;5.196;2023-03-23T02:45:28;99932.00;;;17.80
20736;BMP180;10528;52.124;5.196;2023-03-23T02:47:56;99941.00;;;17.80
20736;BMP180;10528;52.124;5.196;2023-03-23T02:50:26;99937.00;;;17.80
20736;BMP180;10528;52.124;5.196;2023-03-23T02:52:55;99944.00;;;17.80
20736;BMP180;10528;52.124;5.196;2023-03-23T02:55:22;99944.00;;;17.80
20736;BMP180;10528;52.124;5.196;2023-03-23T02:57:53;99940.00;;;17.90
20736;BMP180;10528;52.124;5.196;2023-03-23T03:00:21;99922.00;;;17.90
20736;BMP180;10528;52.124;5.196;2023-03-23T03:02:53;99924.00;;;17.90
20736;BMP180;10528;52.124;5.196;2023-03-23T03:08:25;99929.00;;;17.80
20736;BMP180;10528;52.124;5.196;2023-03-23T03:10:59;99929.00;;;17.90
20736;BMP180;10528;52.124;5.196;2023-03-23T03:13:58;99924.00;;;17.90
20736;BMP180;10528;52.124;5.196;2023-03-23T03:19:32;99920.00;;;17.90
20736;BMP180;10528;52.124;5.196;2023-03-23T03:22:02;99913.00;;;17.90
20736;BMP180;10528;52.124;5.196;2023-03-23T03:24:41;99925.00;;;17.90
20736;BMP180;10528;52.124;5.196;2023-03-23T03:27:15;99914.00;;;17.90
20736;BMP180;10528;52.124;5.196;2023-03-23T03:29:56;99916.00;;;17.90
20736;BMP180;10528;52.124;5.196;2023-03-23T03:32:39;99917.00;;;17.80
20736;BMP180;10528;52.124;5.196;2023-03-23T03:35:07;99912.00;;;17.90
20736;BMP180;10528;52.124;5.196;2023-03-23T03:37:35;99891.00;;;17.90
20736;BMP180;10528;52.124;5.196;2023-03-23T03:40:07;99899.00;;;17.90
20736;BMP180;10528;52.124;5.196;2023-03-23T03:42:42;99909.00;;;17.90
20736;BMP180;10528;52.124;5.196;2023-03-23T03:45:13;99906.00;;;18.00
20736;BMP180;10528;52.124;5.196;2023-03-23T03:47:39;99911.00;;;18.00
20736;BMP180;10528;52.124;5.196;2023-03-23T03:50:06;99915.00;;;18.00
20736;BMP180;10528;52.124;5.196;2023-03-23T03:52:33;99905.00;;;17.90
20736;BMP180;10528;52.124;5.196;2023-03-23T03:54:59;99916.00;;;18.00
20736;BMP180;10528;52.124;5.196;2023-03-23T03:57:26;99912.00;;;17.90
20736;BMP180;10528;52.124;5.196;2023-03-23T04:00:06;99905.00;;;18.00
20736;BMP180;10528;52.124;5.196;2023-03-23T04:02:46;99902.00;;;18.00
20736;BMP180;10528;52.124;5.196;2023-03-23T04:05:39;99909.00;;;18.00
20736;BMP180;10528;52.124;5.196;2023-03-23T04:08:05;99905.00;;;18.00
20736;BMP180;10528;52.124;5.196;2023-03-23T04:10:32;99912.00;;;18.00
20736;BMP180;10528;52.124;5.196;2023-03-23T04:12:59;99916.00;;;18.00
20736;BMP180;10528;52.124;5.196;2023-03-23T04:15:49;99926.00;;;18.00
20736;BMP180;10528;52.124;5.196;2023-03-23T04:18:17;99909.00;;;18.00
20736;BMP180;10528;52.124;5.196;2023-03-23T04:20:47;99920.00;;;18.00
20736;BMP180;10528;52.124;5.196;2023-03-23T04:23:17;99921.00;;;17.90
20736;BMP180;10528;52.124;5.196;2023-03-23T04:25:49;99922.00;;;18.00
20736;BMP180;10528;52.124;5.196;2023-03-23T04:28:17;99912.00;;;18.00
20736;BMP180;10528;52.124;5.196;2023-03-23T04:30:59;99917.00;;;18.00
20736;BMP180;10528;52.124;5.196;2023-03-23T04:33:28;99926.00;;;18.00
20736;BMP180;10528;52.124;5.196;2023-03-23T04:36:00;99927.00;;;18.10
20736;BMP180;10528;52.124;5.196;2023-03-23T04:38:52;99926.00;;;18.10
20736;BMP180;10528;52.124;5.196;2023-03-23T04:41:22;99919.00;;;18.10
20736;BMP180;10528;52.124;5.196;2023-03-23T04:43:59;99952.00;;;18.10
20736;BMP180;10528;52.124;5.196;2023-03-23T04:46:40;99955.00;;;18.00
20736;BMP180;10528;52.124;5.196;2023-03-23T04:49:09;99946.00;;;18.00
20736;BMP180;10528;52.124;5.196;2023-03-23T04:51:37;99942.00;;;18.00
20736;BMP180;10528;52.124;5.196;2023-03-23T04:54:16;99948.00;;;18.00
20736;BMP180;10528;52.124;5.196;2023-03-23T04:56:46;99941.00;;;18.00
20736;BMP180;10528;52.124;5.196;2023-03-23T04:59:14;99943.00;;;18.00
20736;BMP180;10528;52.124;5.196;2023-03-23T05:02:05;99968.00;;;17.90
20736;BMP180;10528;52.124;5.196;2023-03-23T05:04:32;99963.00;;;17.90
20736;BMP180;10528;52.124;5.196;2023-03-23T05:07:08;99957.00;;;17.90
20736;BMP180;10528;52.124;5.196;2023-03-23T05:09:41;99959.00;;;17.90
20736;BMP180;10528;52.124;5.196;2023-03-23T05:12:09;99966.00;;;17.90
20736;BMP180;10528;52.124;5.196;2023-03-23T05:14:45;99969.00;;;17.90
20736;BMP180;10528;52.124;5.196;2023-03-23T05:17:15;99978.00;;;17.90
20736;BMP180;10528;52.124;5.196;2023-03-23T05:19:43;99967.00;;;17.90
20736;BMP180;10528;52.124;5.196;2023-03-23T05:22:29;99977.00;;;17.90
20736;BMP180;10528;52.124;5.196;2023-03-23T05:24:59;99980.00;;;17.80
20736;BMP180;10528;52.124;5.196;2023-03-23T05:27:29;99977.00;;;17.70
20736;BMP180;10528;52.124;5.196;2023-03-23T05:30:00;99984.00;;;17.70
20736;BMP180;10528;52.124;5.196;2023-03-23T05:32:28;99989.00;;;17.60
20736;BMP180;10528;52.124;5.196;2023-03-23T05:34:57;99979.00;;;17.60
20736;BMP180;10528;52.124;5.196;2023-03-23T05:37:25;99983.00;;;17.60
20736;BMP180;10528;52.124;5.196;2023-03-23T05:39:58;99990.00;;;17.60
20736;BMP180;10528;52.124;5.196;2023-03-23T05:42:43;100009.00;;;17.60
20736;BMP180;10528;52.124;5.196;2023-03-23T05:45:19;99983.00;;;17.50
20736;BMP180;10528;52.124;5.196;2023-03-23T05:47:47;99988.00;;;17.50
20736;BMP180;10528;52.124;5.196;2023-03-23T05:50:18;99988.00;;;17.50
20736;BMP180;10528;52.124;5.196;2023-03-23T05:52:45;100002.00;;;17.50
20736;BMP180;10528;52.124;5.196;2023-03-23T05:55:13;100011.00;;;17.50
20736;BMP180;10528;52.124;5.196;2023-03-23T05:57:42;100014.00;;;17.50
20736;BMP180;10528;52.124;5.196;2023-03-23T06:00:31;100009.00;;;17.50
20736;BMP180;10528;52.124;5.196;2023-03-23T06:03:10;100008.00;;;17.50
20736;BMP180;10528;52.124;5.196;2023-03-23T06:05:45;100005.00;;;17.40
20736;BMP180;10528;52.124;5.196;2023-03-23T06:08:14;100001.00;;;17.50
20736;BMP180;10528;52.124;5.196;2023-03-23T06:10:40;100002.00;;;17.40
20736;BMP180;10528;52.124;5.196;2023-03-23T06:13:06;100023.00;;;17.40
20736;BMP180;10528;52.124;5.196;2023-03-23T06:15:37;100026.00;;;17.40
20736;BMP180;10528;52.124;5.196;2023-03-23T06:18:19;100031.00;;;17.40
20736;BMP180;10528;52.124;5.196;2023-03-23T06:21:24;100038.00;;;17.30
20736;BMP180;10528;52.124;5.196;2023-03-23T06:23:56;100034.00;;;17.30
20736;BMP180;10528;52.124;5.196;2023-03-23T06:26:34;100038.00;;;17.30
20736;BMP180;10528;52.124;5.196;2023-03-23T06:29:07;100042.00;;;17.30
20736;BMP180;10528;52.124;5.196;2023-03-23T06:31:43;100052.00;;;17.30
20736;BMP180;10528;52.124;5.196;2023-03-23T06:34:11;100048.00;;;17.30
20736;BMP180;10528;52.124;5.196;2023-03-23T06:37:15;100069.00;;;17.30
20736;BMP180;10528;52.124;5.196;2023-03-23T06:39:59;100067.00;;;17.30
20736;BMP180;10528;52.124;5.196;2023-03-23T06:42:34;100057.00;;;17.40
20736;BMP180;10528;52.124;5.196;2023-03-23T06:45:31;100063.00;;;17.40
20736;BMP180;10528;52.124;5.196;2023-03-23T06:48:17;100068.00;;;17.40
20736;BMP180;10528;52.124;5.196;2023-03-23T06:50:45;100068.00;;;17.40
20736;BMP180;10528;52.124;5.196;2023-03-23T06:53:13;100063.00;;;17.40
20736;BMP180;10528;52.124;5.196;2023-03-23T06:55:39;100068.00;;;17.30
20736;BMP180;10528;52.124;5.196;2023-03-23T06:58:05;100068.00;;;17.40
20736;BMP180;10528;52.124;5.196;2023-03-23T07:00:33;100077.00;;;17.40
20736;BMP180;10528;52.124;5.196;2023-03-23T07:02:59;100067.00;;;17.40
20736;BMP180;10528;52.124;5.196;2023-03-23T07:05:25;100068.00;;;17.40
20736;BMP180;10528;52.124;5.196;2023-03-23T07:07:52;100061.00;;;17.40
20736;BMP180;10528;52.124;5.196;2023-03-23T07:10:29;100069.00;;;17.50
20736;BMP180;10528;52.124;5.196;2023-03-23T07:12:56;100067.00;;;17.50
20736;BMP180;10528;52.124;5.196;2023-03-23T07:15:23;100063.00;;;17.50
20736;BMP180;10528;52.124;5.196;2023-03-23T07:17:51;100080.00;;;17.50
20736;BMP180;10528;52.124;5.196;2023-03-23T07:20:47;100067.00;;;17.40
20736;BMP180;10528;52.124;5.196;2023-03-23T07:23:14;100081.00;;;17.40
20736;BMP180;10528;52.124;5.196;2023-03-23T07:25:46;100086.00;;;17.50
20736;BMP180;10528;52.124;5.196;2023-03-23T07:28:18;100086.00;;;17.50
20736;BMP180;10528;52.124;5.196;2023-03-23T07:30:45;100088.00;;;17.60
20736;BMP180;10528;52.124;5.196;2023-03-23T07:33:11;100084.00;;;17.70
20736;BMP180;10528;52.124;5.196;2023-03-23T07:35:38;100087.00;;;17.70
20736;BMP180;10528;52.124;5.196;2023-03-23T07:38:07;100087.00;;;17.70
20736;BMP180;10528;52.124;5.196;2023-03-23T07:40:35;100097.00;;;17.70
20736;BMP180;10528;52.124;5.196;2023-03-23T07:43:07;100104.00;;;17.70
20736;BMP180;10528;52.124;5.196;2023-03-23T07:45:59;100105.00;;;17.60
20736;BMP180;10528;52.124;5.196;2023-03-23T07:48:34;100100.00;;;17.70
20736;BMP180;10528;52.124;5.196;2023-03-23T07:51:00;100106.00;;;17.70
20736;BMP180;10528;52.124;5.196;2023-03-23T07:53:28;100091.00;;;17.80
20736;BMP180;10528;52.124;5.196;2023-03-23T07:56:07;100093.00;;;17.80
20736;BMP180;10528;52.124;5.196;2023-03-23T07:58:47;100081.00;;;17.90
20736;BMP180;10528;52.124;5.196;2023-03-23T08:01:13;100098.00;;;17.90
20736;BMP180;10528;52.124;5.196;2023-03-23T08:03:42;100109.00;;;17.90
20736;BMP180;10528;52.124;5.196;2023-03-23T08:06:33;100108.00;;;18.00
20736;BMP180;10528;52.124;5.196;2023-03-23T08:09:17;100114.00;;;18.10
20736;BMP180;10528;52.124;5.196;2023-03-23T08:12:18;100111.00;;;18.10
20736;BMP180;10528;52.124;5.196;2023-03-23T08:15:17;100116.00;;;18.10
20736;BMP180;10528;52.124;5.196;2023-03-23T08:18:12;100119.00;;;18.10
20736;BMP180;10528;52.124;5.196;2023-03-23T08:20:45;100107.00;;;18.20
20736;BMP180;10528;52.124;5.196;2023-03-23T08:23:30;100122.00;;;18.20
20736;BMP180;10528;52.124;5.196;2023-03-23T08:26:17;100115.00;;;18.30
20736;BMP180;10528;52.124;5.196;2023-03-23T08:28:54;100114.00;;;18.30
20736;BMP180;10528;52.124;5.196;2023-03-23T08:31:20;100129.00;;;18.40
20736;BMP180;10528;52.124;5.196;2023-03-23T08:33:58;100125.00;;;18.40
20736;BMP180;10528;52.124;5.196;2023-03-23T08:36:36;100128.00;;;18.50
20736;BMP180;10528;52.124;5.196;2023-03-23T08:39:13;100137.00;;;18.50
20736;BMP180;10528;52.124;5.196;2023-03-23T08:41:58;100138.00;;;18.50
20736;BMP180;10528;52.124;5.196;2023-03-23T08:44:47;100138.00;;;18.60
20736;BMP180;10528;52.124;5.196;2023-03-23T08:47:30;100142.00;;;18.60
20736;BMP180;10528;52.124;5.196;2023-03-23T08:50:16;100138.00;;;18.60
20736;BMP180;10528;52.124;5.196;2023-03-23T08:52:43;100144.00;;;18.60
20736;BMP180;10528;52.124;5.196;2023-03-23T08:55:28;100145.00;;;18.60
20736;BMP180;10528;52.124;5.196;2023-03-23T08:58:10;100150.00;;;18.60
20736;BMP180;10528;52.124;5.196;2023-03-23T09:00:54;100153.00;;;18.60
20736;BMP180;10528;52.124;5.196;2023-03-23T09:03:52;100155.00;;;18.60
20736;BMP180;10528;52.124;5.196;2023-03-23T09:06:38;100148.00;;;18.70
20736;BMP180;10528;52.124;5.196;2023-03-23T09:09:04;100148.00;;;18.70
20736;BMP180;10528;52.124;5.196;2023-03-23T09:11:35;100156.00;;;18.70
20736;BMP180;10528;52.124;5.196;2023-03-23T09:14:04;100150.00;;;18.80
20736;BMP180;10528;52.124;5.196;2023-03-23T09:16:32;100161.00;;;18.80
20736;BMP180;10528;52.124;5.196;2023-03-23T09:18:59;100157.00;;;18.80
20736;BMP180;10528;52.124;5.196;2023-03-23T09:21:27;100155.00;;;18.90
20736;BMP180;10528;52.124;5.196;2023-03-23T09:23:54;100158.00;;;18.90
20736;BMP180;10528;52.124;5.196;2023-03-23T09:26:25;100151.00;;;18.90
20736;BMP180;10528;52.124;5.196;2023-03-23T09:28:51;100147.00;;;18.90
20736;BMP180;10528;52.124;5.196;2023-03-23T09:31:18;100156.00;;;18.80
20736;BMP180;10528;52.124;5.196;2023-03-23T09:33:48;100149.00;;;18.90
20736;BMP180;10528;52.124;5.196;2023-03-23T09:36:18;100154.00;;;18.90
20736;BMP180;10528;52.124;5.196;2023-03-23T09:38:48;100161.00;;;19.00
20736;BMP180;10528;52.124;5.196;2023-03-23T09:48:56;100160.00;;;19.20
20736;BMP180;10528;52.124;5.196;2023-03-23T09:51:42;100174.00;;;19.30
20736;BMP180;10528;52.124;5.196;2023-03-23T09:54:26;100179.00;;;19.30
20736;BMP180;10528;52.124;5.196;2023-03-23T09:56:55;100194.00;;;19.40
20736;BMP180;10528;52.124;5.196;2023-03-23T09:59:39;100193.00;;;19.50
20736;BMP180;10528;52.124;5.196;2023-03-23T10:05:34;100199.00;;;19.80
20736;BMP180;10528;52.124;5.196;2023-03-23T10:08:22;100200.00;;;19.90
20736;BMP180;10528;52.124;5.196;2023-03-23T10:13:52;100202.00;;;20.10
20736;BMP180;10528;52.124;5.196;2023-03-23T10:16:25;100209.00;;;20.00
20736;BMP180;10528;52.124;5.196;2023-03-23T10:19:19;100211.00;;;20.20
20736;BMP180;10528;52.124;5.196;2023-03-23T10:21:52;100217.00;;;20.30
20736;BMP180;10528;52.124;5.196;2023-03-23T10:24:26;100216.00;;;20.40
20736;BMP180;10528;52.124;5.196;2023-03-23T10:27:18;100218.00;;;20.50
20736;BMP180;10528;52.124;5.196;2023-03-23T10:35:25;100239.00;;;20.80
20736;BMP180;10528;52.124;5.196;2023-03-23T10:38:02;100235.00;;;20.80
20736;BMP180;10528;52.124;5.196;2023-03-23T10:40:30;100228.00;;;20.80
20736;BMP180;10528;52.124;5.196;2023-03-23T10:43:01;100223.00;;;20.90
20736;BMP180;10528;52.124;5.196;2023-03-23T10:45:30;100230.00;;;20.80
20736;BMP180;10528;52.124;5.196;2023-03-23T10:48:29;100225.00;;;20.90
20736;BMP180;10528;52.124;5.196;2023-03-23T10:50:59;100232.00;;;20.90
20736;BMP180;10528;52.124;5.196;2023-03-23T10:53:36;100215.00;;;20.80
20736;BMP180;10528;52.124;5.196;2023-03-23T10:56:05;100227.00;;;20.90
20736;BMP180;10528;52.124;5.196;2023-03-23T10:58:34;100232.00;;;20.90
20736;BMP180;10528;52.124;5.196;2023-03-23T11:01:04;100234.00;;;20.90
20736;BMP180;10528;52.124;5.196;2023-03-23T11:03:42;100234.00;;;20.90
20736;BMP180;10528;52.124;5.196;2023-03-23T11:06:19;100234.00;;;20.90
20736;BMP180;10528;52.124;5.196;2023-03-23T11:08:55;100239.00;;;20.90
20736;BMP180;10528;52.124;5.196;2023-03-23T11:14:23;100252.00;;;20.90
20736;BMP180;10528;52.124;5.196;2023-03-23T11:16:54;100240.00;;;20.90
20736;BMP180;10528;52.124;5.196;2023-03-23T11:22:08;100231.00;;;20.90
20736;BMP180;10528;52.124;5.196;2023-03-23T11:24:46;100241.00;;;20.90
20736;BMP180;10528;52.124;5.196;2023-03-23T11:27:15;100222.00;;;21.00
20736;BMP180;10528;52.124;5.196;2023-03-23T11:30:19;100210.00;;;21.00
20736;BMP180;10528;52.124;5.196;2023-03-23T11:32:46;100221.00;;;21.10
20736;BMP180;10528;52.124;5.196;2023-03-23T11:35:20;100238.00;;;21.20
20736;BMP180;10528;52.124;5.196;2023-03-23T11:37:56;100221.00;;;21.30
20736;BMP180;10528;52.124;5.196;2023-03-23T11:40:27;100224.00;;;21.40
20736;BMP180;10528;52.124;5.196;2023-03-23T11:43:13;100229.00;;;21.40
20736;BMP180;10528;52.124;5.196;2023-03-23T11:46:14;100218.00;;;21.40
20736;BMP180;10528;52.124;5.196;2023-03-23T11:48:53;100226.00;;;21.50
20736;BMP180;10528;52.124;5.196;2023-03-23T11:51:41;100250.00;;;21.50
20736;BMP180;10528;52.124;5.196;2023-03-23T11:54:36;100247.00;;;21.40
20736;BMP180;10528;52.124;5.196;2023-03-23T11:57:11;100235.00;;;21.40
20736;BMP180;10528;52.124;5.196;2023-03-23T11:59:39;100241.00;;;21.30
20736;BMP180;10528;52.124;5.196;2023-03-23T12:28:15;100234.00;;;21.00
20736;BMP180;10528;52.124;5.196;2023-03-23T12:31:18;100232.00;;;21.00
20736;BMP180;10528;52.124;5.196;2023-03-23T12:33:59;100237.00;;;21.10
20736;BMP180;10528;52.124;5.196;2023-03-23T12:48:52;100209.00;;;21.20
20736;BMP180;10528;52.124;5.196;2023-03-23T12:52:46;100208.00;;;21.10
20736;BMP180;10528;52.124;5.196;2023-03-23T12:55:33;100208.00;;;21.10
20736;BMP180;10528;52.124;5.196;2023-03-23T12:58:28;100196.00;;;21.20
20736;BMP180;10528;52.124;5.196;2023-03-23T13:01:02;100192.00;;;21.20
20736;BMP180;10528;52.124;5.196;2023-03-23T13:03:59;100201.00;;;21.10
20736;BMP180;10528;52.124;5.196;2023-03-23T13:06:40;100210.00;;;21.20
20736;BMP180;10528;52.124;5.196;2023-03-23T13:09:22;100200.00;;;21.20
20736;BMP180;10528;52.124;5.196;2023-03-23T13:11:55;100201.00;;;21.20
20736;BMP180;10528;52.124;5.196;2023-03-23T13:17:52;100216.00;;;21.20
20736;BMP180;10528;52.124;5.196;2023-03-23T13:23:45;100228.00;;;21.20
20736;BMP180;10528;52.124;5.196;2023-03-23T13:26:21;100220.00;;;21.30
20736;BMP180;10528;52.124;5.196;2023-03-23T13:29:00;100210.00;;;21.30
20736;BMP180;10528;52.124;5.196;2023-03-23T13:31:38;100210.00;;;21.40
20736;BMP180;10528;52.124;5.196;2023-03-23T13:34:24;100207.00;;;21.30
20736;BMP180;10528;52.124;5.196;2023-03-23T13:36:56;100230.00;;;21.20
20736;BMP180;10528;52.124;5.196;2023-03-23T13:39:37;100232.00;;;21.30
20736;BMP180;10528;52.124;5.196;2023-03-23T14:03:26;100210.00;;;21.20
20736;BMP180;10528;52.124;5.196;2023-03-23T14:10:57;100241.00;;;21.20
20736;BMP180;10528;52.124;5.196;2023-03-23T14:14:07;100227.00;;;21.20
20736;BMP180;10528;52.124;5.196;2023-03-23T14:16:48;100230.00;;;21.10
20736;BMP180;10528;52.124;5.196;2023-03-23T14:19:28;100237.00;;;21.10
20736;BMP180;10528;52.124;5.196;2023-03-23T14:22:00;100232.00;;;21.10
20736;BMP180;10528;52.124;5.196;2023-03-23T14:24:33;100238.00;;;21.10
20736;BMP180;10528;52.124;5.196;2023-03-23T14:27:15;100238.00;;;21.10
20736;BMP180;10528;52.124;5.196;2023-03-23T14:29:42;100232.00;;;21.00
20736;BMP180;10528;52.124;5.196;2023-03-23T14:32:20;100214.00;;;20.90
20736;BMP180;10528;52.124;5.196;2023-03-23T14:34:53;100200.00;;;20.90
20736;BMP180;10528;52.124;5.196;2023-03-23T14:37:21;100196.00;;;20.90
20736;BMP180;10528;52.124;5.196;2023-03-23T14:39:51;100198.00;;;20.90
20736;BMP180;10528;52.124;5.196;2023-03-23T14:42:30;100165.00;;;20.90
20736;BMP180;10528;52.124;5.196;2023-03-23T14:44:59;100159.00;;;20.90
20736;BMP180;10528;52.124;5.196;2023-03-23T14:47:31;100171.00;;;21.00
20736;BMP180;10528;52.124;5.196;2023-03-23T14:50:01;100161.00;;;20.90
20736;BMP180;10528;52.124;5.196;2023-03-23T14:52:35;100155.00;;;21.00
20736;BMP180;10528;52.124;5.196;2023-03-23T14:55:20;100151.00;;;20.90
20736;BMP180;10528;52.124;5.196;2023-03-23T14:57:48;100142.00;;;21.00
20736;BMP180;10528;52.124;5.196;2023-03-23T15:00:20;100153.00;;;21.00
20736;BMP180;10528;52.124;5.196;2023-03-23T15:02:53;100159.00;;;21.00
20736;BMP180;10528;52.124;5.196;2023-03-23T15:05:46;100175.00;;;21.00
20736;BMP180;10528;52.124;5.196;2023-03-23T15:08:34;100171.00;;;20.90
20736;BMP180;10528;52.124;5.196;2023-03-23T15:11:37;100181.00;;;20.90
20736;BMP180;10528;52.124;5.196;2023-03-23T15:14:22;100174.00;;;20.90
20736;BMP180;10528;52.124;5.196;2023-03-23T15:16:51;100178.00;;;20.90
20736;BMP180;10528;52.124;5.196;2023-03-23T15:19:34;100158.00;;;20.90
20736;BMP180;10528;52.124;5.196;2023-03-23T15:25:31;100147.00;;;20.90
20736;BMP180;10528;52.124;5.196;2023-03-23T15:28:16;100134.00;;;20.90
20736;BMP180;10528;52.124;5.196;2023-03-23T15:30:55;100147.00;;;20.90
20736;BMP180;10528;52.124;5.196;2023-03-23T15:33:24;100123.00;;;20.90
20736;BMP180;10528;52.124;5.196;2023-03-23T15:35:55;100114.00;;;20.90
20736;BMP180;10528;52.124;5.196;2023-03-23T15:38:30;100123.00;;;20.90
20736;BMP180;10528;52.124;5.196;2023-03-23T15:41:06;100113.00;;;20.90
20736;BMP180;10528;52.124;5.196;2023-03-23T15:43:52;100120.00;;;20.90
20736;BMP180;10528;52.124;5.196;2023-03-23T15:46:23;100120.00;;;21.00
20736;BMP180;10528;52.124;5.196;2023-03-23T15:49:12;100129.00;;;20.90
20736;BMP180;10528;52.124;5.196;2023-03-23T15:51:39;100136.00;;;21.00
20736;BMP180;10528;52.124;5.196;2023-03-23T15:54:13;100128.00;;;21.00
20736;BMP180;10528;52.124;5.196;2023-03-23T15:56:40;100117.00;;;21.00
20736;BMP180;10528;52.124;5.196;2023-03-23T15:59:08;100116.00;;;21.00
20736;BMP180;10528;52.124;5.196;2023-03-23T16:01:39;100120.00;;;21.10
20736;BMP180;10528;52.124;5.196;2023-03-23T16:04:13;100115.00;;;21.10
20736;BMP180;10528;52.124;5.196;2023-03-23T16:06:41;100114.00;;;21.10
20736;BMP180;10528;52.124;5.196;2023-03-23T16:09:15;100124.00;;;21.10
20736;BMP180;10528;52.124;5.196;2023-03-23T16:11:42;100131.00;;;21.10
20736;BMP180;10528;52.124;5.196;2023-03-23T16:14:10;100114.00;;;21.10
20736;BMP180;10528;52.124;5.196;2023-03-23T16:16:48;100108.00;;;21.10
20736;BMP180;10528;52.124;5.196;2023-03-23T16:19:17;100113.00;;;21.10
20736;BMP180;10528;52.124;5.196;2023-03-23T16:21:46;100120.00;;;21.10
20736;BMP180;10528;52.124;5.196;2023-03-23T16:24:13;100114.00;;;21.10
20736;BMP180;10528;52.124;5.196;2023-03-23T16:26:40;100118.00;;;21.00
20736;BMP180;10528;52.124;5.196;2023-03-23T16:29:15;100120.00;;;21.00
20736;BMP180;10528;52.124;5.196;2023-03-23T16:32:00;100125.00;;;21.00
20736;BMP180;10528;52.124;5.196;2023-03-23T16:34:27;100125.00;;;21.00
20736;BMP180;10528;52.124;5.196;2023-03-23T16:36:55;100143.00;;;21.00
20736;BMP180;10528;52.124;5.196;2023-03-23T16:39:22;100139.00;;;21.00
20736;BMP180;10528;52.124;5.196;2023-03-23T16:41:49;100138.00;;;21.00
20736;BMP180;10528;52.124;5.196;2023-03-23T16:44:16;100135.00;;;21.00
20736;BMP180;10528;52.124;5.196;2023-03-23T16:46:43;100118.00;;;21.00